createdAt,value
2019-06-26T04:46:21.958Z,23.80
2019-06-26T04:48:53.625Z,18.60
2019-06-26T04:51:25.709Z,20.50
2019-06-26T04:53:57.148Z,21.05
2019-06-26T04:58:59.444Z,19.20
2019-06-26T05:06:32.515Z,26.70
2019-06-26T05:09:05.602Z,16.70
2019-06-26T05:11:37.092Z,18.40
2019-06-26T05:14:08.401Z,21.90
2019-06-26T05:16:40.991Z,23.60
2019-06-26T05:21:42.632Z,20.20
2019-06-26T05:44:20.714Z,17.50
2019-06-26T05:46:52.029Z,18.40
2019-06-26T05:49:24.066Z,16.83
2019-06-26T05:51:56.317Z,18.90
2019-06-26T05:54:28.439Z,13.80
2019-06-26T05:57:01.050Z,17.40
2019-06-26T06:04:35.191Z,16.32
2019-06-26T06:07:06.893Z,15.80
2019-06-26T06:12:11.730Z,12.68
2019-06-26T06:14:43.662Z,13.20
2019-06-26T06:19:45.580Z,12.85
2019-06-26T06:22:18.891Z,13.40
2019-06-26T06:24:50.947Z,17.30
2019-06-26T06:27:22.690Z,13.38
2019-06-26T06:29:54.778Z,12.95
2019-06-26T06:32:30.526Z,13.50
2019-06-26T06:35:02.099Z,14.98
2019-06-26T06:37:34.333Z,15.65
2019-06-26T06:42:38.808Z,13.30
2019-06-26T06:45:11.330Z,13.60
2019-06-26T06:47:43.358Z,13.95
2019-06-26T06:50:15.680Z,17.60
2019-06-26T06:52:47.474Z,12.63
2019-06-26T06:55:19.425Z,15.20
2019-06-26T06:57:54.164Z,17.80
2019-06-26T07:05:30.015Z,13.40
2019-06-26T07:08:02.317Z,16.87
2019-06-26T07:10:34.408Z,15.18
2019-06-26T07:13:06.845Z,14.17
2019-06-26T09:51:32.954Z,11.10
2019-06-26T10:42:07.646Z,8.45
2019-06-26T10:54:53.619Z,9.65
2019-06-26T18:01:33.281Z,11.95
2019-06-26T18:04:25.776Z,19.80
2019-06-26T18:26:16.858Z,8.45
2019-06-26T18:29:34.552Z,14.80
2019-06-26T18:39:27.883Z,11.43
2019-06-26T18:42:04.280Z,13.32
2019-06-26T18:44:37.491Z,8.15
2019-06-26T18:47:10.554Z,9.80
2019-06-26T18:49:42.598Z,9.85
2019-06-26T18:52:15.075Z,13.32
2019-06-26T18:55:04.421Z,13.70
2019-06-26T18:57:52.208Z,14.28
2019-06-26T19:00:46.106Z,10.20
2019-06-26T19:03:43.259Z,10.40
2019-06-26T19:06:20.567Z,16.60
2019-06-26T19:09:11.190Z,21.70
2019-06-26T19:12:35.966Z,14.15
2019-06-26T19:15:28.706Z,12.10
2019-06-26T19:21:19.028Z,12.07
2019-06-26T19:24:19.131Z,16.17
2019-06-26T19:27:01.622Z,14.65
2019-06-26T19:29:50.246Z,12.70
2019-06-26T19:33:05.310Z,13.20
2019-06-26T19:36:06.374Z,11.48
2019-06-26T19:39:29.327Z,9.98
2019-06-26T19:42:15.787Z,11.53
2019-06-26T19:45:13.639Z,9.35
2019-06-26T19:47:57.746Z,10.25
2019-06-26T19:50:42.385Z,11.15
2019-06-26T19:53:24.745Z,12.50
2019-06-26T19:55:57.025Z,10.45
2019-06-26T19:58:29.636Z,11.90
2019-06-26T20:01:11.190Z,10.43
2019-06-26T20:04:08.167Z,9.80
2019-06-26T20:07:06.460Z,9.88
2019-06-26T20:09:51.631Z,8.70
2019-06-26T20:12:31.640Z,9.25
2019-06-26T20:15:25.521Z,8.93
2019-06-26T20:18:40.090Z,14.53
2019-06-26T20:30:09.694Z,9.25
2019-06-26T20:32:41.547Z,8.60
2019-06-26T20:35:14.107Z,10.03
2019-06-26T20:42:48.607Z,9.60
2019-06-26T20:45:22.113Z,11.18
2019-06-26T20:47:55.069Z,15.48
2019-06-26T20:50:28.992Z,10.35
2019-06-26T20:53:01.395Z,7.80
2019-06-26T20:55:33.486Z,9.60
2019-06-26T20:58:05.316Z,9.00
2019-06-26T21:00:37.162Z,12.00
2019-06-26T21:08:11.593Z,10.80
2019-06-26T21:10:43.508Z,8.30
